NKS1827 KMCO-KEWR
Flight info
| Callsign | NKS1827 |
|---|---|
| Flight time | N/A |
| Altitude | 37000 |
| Route | FATHE4 VIYAP Q87 ALWZZ OGRAE Q99 QUART PHLBO4 |
| Aircraft | A321/M-SDE3FGHIRWY/LB1 |
Departure
| Time | 2026-05-05 08:33 |
|---|---|
| Airport | Orlando International Airport (KMCO) |
Arrival
| Time | N/A |
|---|---|
| Airport | Newark Liberty International Airport (KEWR) |
| Time | Latitude | Longitude | Altitude | Speed | Heading |
|---|---|---|---|---|---|
| 2026-05-05 08:25 | 28.43595 | -81.31302 | 104 ft | 0 kts | 166° |
| 2026-05-05 08:26 | 28.43607 | -81.31306 | 104 ft | 2 kts | 160° |
| 2026-05-05 08:26 | 28.43621 | -81.31311 | 104 ft | 2 kts | 163° |
| 2026-05-05 08:26 | 28.43636 | -81.31316 | 104 ft | 2 kts | 162° |
| 2026-05-05 08:26 | 28.43650 | -81.31321 | 105 ft | 2 kts | 162° |
| 2026-05-05 08:27 | 28.43664 | -81.31326 | 104 ft | 2 kts | 162° |
| 2026-05-05 08:27 | 28.43676 | -81.31331 | 104 ft | 1 kts | 161° |
| 2026-05-05 08:27 | 28.43682 | -81.31331 | 104 ft | 0 kts | 222° |
| 2026-05-05 08:27 | 28.43686 | -81.31325 | 104 ft | 0 kts | 266° |
| 2026-05-05 08:28 | 28.43685 | -81.31319 | 104 ft | 1 kts | 271° |
| 2026-05-05 08:28 | 28.43685 | -81.31317 | 104 ft | 0 kts | 270° |
| 2026-05-05 08:29 | 28.43685 | -81.31319 | 104 ft | 3 kts | 270° |
| 2026-05-05 08:29 | 28.43690 | -81.31406 | 104 ft | 18 kts | 278° |
| 2026-05-05 08:30 | 28.43816 | -81.31679 | 104 ft | 20 kts | 325° |
| 2026-05-05 08:30 | 28.43849 | -81.31817 | 104 ft | 18 kts | 281° |
| 2026-05-05 08:30 | 28.43960 | -81.31868 | 104 ft | 19 kts | 349° |
| 2026-05-05 08:30 | 28.44091 | -81.31899 | 104 ft | 19 kts | 354° |
| 2026-05-05 08:31 | 28.44251 | -81.31902 | 104 ft | 23 kts | 359° |
| 2026-05-05 08:31 | 28.44415 | -81.31904 | 104 ft | 23 kts | 0° |
| 2026-05-05 08:31 | 28.44573 | -81.31905 | 104 ft | 22 kts | 359° |
| 2026-05-05 08:31 | 28.44726 | -81.31912 | 104 ft | 21 kts | 358° |
| 2026-05-05 08:32 | 28.44821 | -81.31965 | 104 ft | 13 kts | 263° |
| 2026-05-05 08:32 | 28.44824 | -81.32068 | 104 ft | 12 kts | 275° |
| 2026-05-05 08:32 | 28.44823 | -81.32182 | 104 ft | 11 kts | 269° |
| 2026-05-05 08:32 | 28.44763 | -81.32230 | 104 ft | 17 kts | 178° |
| 2026-05-05 08:33 | 28.44448 | -81.32225 | 105 ft | 80 kts | 180° |
| 2026-05-05 08:33 | 28.43659 | -81.32217 | 105 ft | 143 kts | 179° |
| 2026-05-05 08:33 | 28.42496 | -81.32224 | 292 ft | 178 kts | 179° |
| 2026-05-05 08:33 | 28.41233 | -81.32224 | 878 ft | 186 kts | 178° |
| 2026-05-05 08:34 | 28.39998 | -81.32245 | 1774 ft | 175 kts | 178° |
| 2026-05-05 08:34 | 28.38796 | -81.32553 | 2340 ft | 186 kts | 200° |
| 2026-05-05 08:34 | 28.37614 | -81.33256 | 2720 ft | 197 kts | 208° |
| 2026-05-05 08:34 | 28.36576 | -81.34356 | 2964 ft | 214 kts | 236° |
| 2026-05-05 08:35 | 28.36085 | -81.35995 | 3167 ft | 234 kts | 266° |
| 2026-05-05 08:35 | 28.36404 | -81.37859 | 3498 ft | 254 kts | 298° |
| 2026-05-05 08:35 | 28.37622 | -81.39339 | 3965 ft | 268 kts | 332° |
| 2026-05-05 08:35 | 28.39432 | -81.39802 | 4649 ft | 273 kts | 6° |
| 2026-05-05 08:36 | 28.41158 | -81.39033 | 5438 ft | 274 kts | 39° |
| 2026-05-05 08:36 | 28.42269 | -81.37291 | 6154 ft | 278 kts | 69° |
| 2026-05-05 08:36 | 28.42935 | -81.35229 | 6860 ft | 283 kts | 64° |
| 2026-05-05 08:36 | 28.44188 | -81.33534 | 7532 ft | 288 kts | 32° |
| 2026-05-05 08:37 | 28.46075 | -81.32838 | 8300 ft | 286 kts | 3° |
| 2026-05-05 08:37 | 28.48059 | -81.32763 | 9042 ft | 289 kts | 359° |
| 2026-05-05 08:37 | 28.50099 | -81.32722 | 9743 ft | 293 kts | 0° |
| 2026-05-05 08:37 | 28.52133 | -81.32617 | 10415 ft | 298 kts | 1° |
| 2026-05-05 08:38 | 28.54249 | -81.32449 | 10801 ft | 313 kts | 2° |
| 2026-05-05 08:38 | 28.56461 | -81.32227 | 11182 ft | 327 kts | 3° |
| 2026-05-05 08:38 | 28.58762 | -81.31968 | 11807 ft | 332 kts | 3° |
| 2026-05-05 08:38 | 28.61042 | -81.31697 | 12472 ft | 334 kts | 3° |
| 2026-05-05 08:39 | 28.63383 | -81.31413 | 13120 ft | 338 kts | 3° |
| 2026-05-05 08:39 | 28.65721 | -81.31126 | 13755 ft | 341 kts | 3° |
| 2026-05-05 08:39 | 28.68082 | -81.30834 | 14378 ft | 344 kts | 2° |
| 2026-05-05 08:39 | 28.70490 | -81.30535 | 15002 ft | 347 kts | 2° |
| 2026-05-05 08:40 | 28.72883 | -81.30239 | 15608 ft | 349 kts | 2° |
| 2026-05-05 08:40 | 28.75313 | -81.29937 | 16222 ft | 352 kts | 2° |
| 2026-05-05 08:40 | 28.77743 | -81.29635 | 16811 ft | 354 kts | 1° |
| 2026-05-05 08:40 | 28.80191 | -81.29330 | 17415 ft | 356 kts | 1° |
| 2026-05-05 08:41 | 28.82692 | -81.29076 | 18005 ft | 357 kts | 358° |
| 2026-05-05 08:41 | 28.85161 | -81.29012 | 18550 ft | 357 kts | 354° |
| 2026-05-05 08:41 | 28.87656 | -81.29140 | 19095 ft | 358 kts | 350° |
| 2026-05-05 08:41 | 28.90130 | -81.29348 | 19634 ft | 359 kts | 349° |
| 2026-05-05 08:42 | 28.92615 | -81.29569 | 20039 ft | 365 kts | 350° |
| 2026-05-05 08:42 | 28.95172 | -81.29796 | 20436 ft | 371 kts | 349° |
| 2026-05-05 08:42 | 28.97750 | -81.30016 | 20964 ft | 372 kts | 349° |
| 2026-05-05 08:42 | 29.00355 | -81.30254 | 21456 ft | 373 kts | 348° |
| 2026-05-05 08:43 | 29.02918 | -81.30537 | 21927 ft | 375 kts | 348° |
| 2026-05-05 08:43 | 29.05531 | -81.30837 | 22404 ft | 376 kts | 348° |
| 2026-05-05 08:43 | 29.08145 | -81.31132 | 22888 ft | 377 kts | 347° |
| 2026-05-05 08:43 | 29.10759 | -81.31408 | 23354 ft | 379 kts | 349° |
| 2026-05-05 08:44 | 29.13406 | -81.31593 | 23820 ft | 381 kts | 350° |
| 2026-05-05 08:44 | 29.16025 | -81.31751 | 24269 ft | 381 kts | 350° |
| 2026-05-05 08:44 | 29.18698 | -81.31911 | 24761 ft | 381 kts | 350° |
| 2026-05-05 08:44 | 29.21348 | -81.32068 | 25209 ft | 382 kts | 350° |
| 2026-05-05 08:45 | 29.24015 | -81.32226 | 25668 ft | 382 kts | 350° |
| 2026-05-05 08:45 | 29.26668 | -81.32385 | 26090 ft | 383 kts | 350° |
| 2026-05-05 08:45 | 29.29330 | -81.32543 | 26496 ft | 384 kts | 349° |
| 2026-05-05 08:45 | 29.31991 | -81.32700 | 26918 ft | 384 kts | 349° |
| 2026-05-05 08:46 | 29.34659 | -81.32862 | 27357 ft | 384 kts | 349° |
| 2026-05-05 08:46 | 29.37354 | -81.33024 | 27749 ft | 384 kts | 349° |
| 2026-05-05 08:46 | 29.40014 | -81.33182 | 28125 ft | 385 kts | 349° |
| 2026-05-05 08:46 | 29.42707 | -81.33341 | 28476 ft | 386 kts | 349° |
| 2026-05-05 08:47 | 29.45381 | -81.33501 | 28831 ft | 387 kts | 349° |
| 2026-05-05 08:47 | 29.48089 | -81.33665 | 29099 ft | 390 kts | 348° |
| 2026-05-05 08:47 | 29.50795 | -81.33830 | 29437 ft | 390 kts | 349° |
| 2026-05-05 08:47 | 29.53501 | -81.33991 | 29825 ft | 389 kts | 349° |
| 2026-05-05 08:48 | 29.56196 | -81.34157 | 30022 ft | 388 kts | 348° |
| 2026-05-05 08:48 | 29.61588 | -81.34478 | 30036 ft | 389 kts | 348° |
| 2026-05-05 08:49 | 29.67012 | -81.34800 | 30024 ft | 390 kts | 348° |
| 2026-05-05 08:49 | 29.72401 | -81.35108 | 30029 ft | 388 kts | 349° |
| 2026-05-05 08:50 | 29.77815 | -81.35422 | 30032 ft | 389 kts | 349° |
| 2026-05-05 08:50 | 29.83255 | -81.35731 | 30038 ft | 391 kts | 348° |
| 2026-05-05 08:51 | 29.88674 | -81.36042 | 30036 ft | 393 kts | 349° |
| 2026-05-05 08:51 | 29.94159 | -81.36359 | 30046 ft | 393 kts | 349° |
| 2026-05-05 08:52 | 29.99618 | -81.36672 | 30043 ft | 392 kts | 348° |
| 2026-05-05 08:52 | 30.05025 | -81.36987 | 30046 ft | 394 kts | 349° |
| 2026-05-05 08:53 | 30.10473 | -81.37304 | 30041 ft | 393 kts | 349° |
| 2026-05-05 08:53 | 30.15966 | -81.37618 | 30036 ft | 396 kts | 349° |
| 2026-05-05 08:54 | 30.21477 | -81.37933 | 30038 ft | 395 kts | 349° |
| 2026-05-05 08:54 | 30.26969 | -81.38250 | 30047 ft | 396 kts | 349° |
| 2026-05-05 08:55 | 30.32484 | -81.38571 | 30040 ft | 396 kts | 348° |
| 2026-05-05 08:55 | 30.37986 | -81.38890 | 30051 ft | 397 kts | 349° |
| 2026-05-05 08:56 | 30.43507 | -81.39207 | 30043 ft | 397 kts | 349° |
| 2026-05-05 08:56 | 30.49001 | -81.39517 | 30044 ft | 397 kts | 349° |
| 2026-05-05 08:57 | 30.54544 | -81.39812 | 30050 ft | 397 kts | 349° |
| 2026-05-05 08:57 | 30.60078 | -81.40103 | 30042 ft | 396 kts | 349° |
| 2026-05-05 08:58 | 30.65575 | -81.40394 | 30045 ft | 397 kts | 349° |
| 2026-05-05 08:58 | 30.71104 | -81.40688 | 30049 ft | 399 kts | 349° |
| 2026-05-05 08:59 | 30.76700 | -81.40986 | 30034 ft | 401 kts | 349° |
| 2026-05-05 08:59 | 30.82273 | -81.41281 | 30033 ft | 402 kts | 349° |
| 2026-05-05 09:00 | 30.87849 | -81.41576 | 30032 ft | 402 kts | 349° |
| 2026-05-05 09:00 | 30.93435 | -81.41871 | 30035 ft | 402 kts | 349° |
| 2026-05-05 09:01 | 30.99025 | -81.42170 | 30028 ft | 402 kts | 349° |
| 2026-05-05 09:01 | 31.04630 | -81.42466 | 30043 ft | 403 kts | 349° |
| 2026-05-05 09:02 | 31.10244 | -81.42766 | 30041 ft | 404 kts | 349° |
| 2026-05-05 09:02 | 31.15874 | -81.43071 | 30046 ft | 402 kts | 349° |
| 2026-05-05 09:03 | 31.21507 | -81.43082 | 30046 ft | 411 kts | 356° |
| 2026-05-05 09:03 | 31.27198 | -81.41932 | 30054 ft | 425 kts | 6° |
| 2026-05-05 09:04 | 31.32782 | -81.39527 | 30057 ft | 434 kts | 15° |
| 2026-05-05 09:04 | 31.38286 | -81.36552 | 30056 ft | 434 kts | 16° |
| 2026-05-05 09:05 | 31.43776 | -81.33553 | 30054 ft | 435 kts | 16° |
| 2026-05-05 09:05 | 31.49239 | -81.30576 | 30055 ft | 434 kts | 17° |
| 2026-05-05 09:06 | 31.54690 | -81.27605 | 30048 ft | 434 kts | 16° |
| 2026-05-05 09:06 | 31.60177 | -81.24612 | 30046 ft | 433 kts | 17° |
| 2026-05-05 09:07 | 31.65624 | -81.21637 | 30053 ft | 432 kts | 17° |
| 2026-05-05 09:07 | 31.71065 | -81.18666 | 30044 ft | 430 kts | 17° |
| 2026-05-05 09:08 | 31.76520 | -81.15688 | 30043 ft | 432 kts | 17° |
| 2026-05-05 09:08 | 31.81931 | -81.12725 | 30046 ft | 432 kts | 17° |
| 2026-05-05 09:09 | 31.87387 | -81.09734 | 30045 ft | 431 kts | 17° |
| 2026-05-05 09:09 | 31.92829 | -81.06742 | 30043 ft | 432 kts | 17° |
| 2026-05-05 09:10 | 31.98247 | -81.03760 | 30046 ft | 432 kts | 17° |
| 2026-05-05 09:10 | 32.03694 | -81.00748 | 30070 ft | 431 kts | 18° |
| 2026-05-05 09:11 | 32.09119 | -80.97716 | 30060 ft | 431 kts | 18° |
| 2026-05-05 09:11 | 32.14565 | -80.94666 | 30058 ft | 431 kts | 18° |
| 2026-05-05 09:12 | 32.19970 | -80.91636 | 30080 ft | 432 kts | 18° |
| 2026-05-05 09:12 | 32.25391 | -80.88595 | 30076 ft | 431 kts | 19° |
| 2026-05-05 09:13 | 32.30809 | -80.85548 | 30087 ft | 431 kts | 19° |
| 2026-05-05 09:13 | 32.36248 | -80.82484 | 30080 ft | 432 kts | 19° |
| 2026-05-05 09:14 | 32.41685 | -80.79419 | 30077 ft | 433 kts | 19° |
| 2026-05-05 09:14 | 32.47100 | -80.76360 | 30073 ft | 433 kts | 20° |
| 2026-05-05 09:15 | 32.52537 | -80.73287 | 30089 ft | 433 kts | 20° |
| 2026-05-05 09:15 | 32.57982 | -80.70200 | 30064 ft | 432 kts | 20° |
| 2026-05-05 09:16 | 32.63397 | -80.67130 | 30065 ft | 433 kts | 20° |
| 2026-05-05 09:16 | 32.68839 | -80.64040 | 30071 ft | 433 kts | 20° |
| 2026-05-05 09:17 | 32.74236 | -80.60927 | 30079 ft | 434 kts | 21° |
| 2026-05-05 09:17 | 32.79653 | -80.57708 | 30068 ft | 434 kts | 21° |
| 2026-05-05 09:18 | 32.85061 | -80.54489 | 30080 ft | 434 kts | 21° |
| 2026-05-05 09:18 | 32.90459 | -80.51276 | 30081 ft | 434 kts | 22° |
| 2026-05-05 09:19 | 32.95853 | -80.48061 | 30079 ft | 434 kts | 22° |
| 2026-05-05 09:19 | 33.01234 | -80.44848 | 30079 ft | 434 kts | 22° |
| 2026-05-05 09:20 | 33.06647 | -80.41615 | 30075 ft | 434 kts | 22° |
| 2026-05-05 09:20 | 33.12044 | -80.38384 | 30072 ft | 433 kts | 22° |
| 2026-05-05 09:21 | 33.17424 | -80.35159 | 30073 ft | 435 kts | 22° |
| 2026-05-05 09:21 | 33.22860 | -80.31898 | 30069 ft | 435 kts | 22° |
| 2026-05-05 09:22 | 33.28247 | -80.28661 | 30071 ft | 435 kts | 23° |
| 2026-05-05 09:22 | 33.33645 | -80.25412 | 30074 ft | 435 kts | 23° |
| 2026-05-05 09:23 | 33.39051 | -80.22154 | 30070 ft | 435 kts | 22° |
| 2026-05-05 09:23 | 33.44459 | -80.18890 | 30071 ft | 435 kts | 23° |
| 2026-05-05 09:24 | 33.49853 | -80.15630 | 30074 ft | 436 kts | 23° |
| 2026-05-05 09:24 | 33.55263 | -80.12357 | 30077 ft | 437 kts | 23° |
| 2026-05-05 09:25 | 33.60691 | -80.09063 | 30074 ft | 437 kts | 23° |
| 2026-05-05 09:25 | 33.66085 | -80.05790 | 30077 ft | 436 kts | 22° |
| 2026-05-05 09:26 | 33.71505 | -80.02505 | 30077 ft | 437 kts | 22° |
| 2026-05-05 09:26 | 33.76940 | -79.99204 | 30075 ft | 436 kts | 23° |
| 2026-05-05 09:27 | 33.82336 | -79.95918 | 30074 ft | 437 kts | 23° |
| 2026-05-05 09:27 | 33.87765 | -79.92607 | 30071 ft | 437 kts | 23° |
| 2026-05-05 09:28 | 33.93183 | -79.89294 | 30070 ft | 435 kts | 23° |
| 2026-05-05 09:28 | 33.98570 | -79.85995 | 30070 ft | 435 kts | 23° |
| 2026-05-05 09:29 | 34.03970 | -79.82685 | 30070 ft | 435 kts | 23° |
| 2026-05-05 09:29 | 34.09362 | -79.79375 | 30072 ft | 436 kts | 23° |
| 2026-05-05 09:30 | 34.14809 | -79.76023 | 30070 ft | 436 kts | 23° |
| 2026-05-05 09:30 | 34.20217 | -79.72698 | 30074 ft | 437 kts | 23° |
| 2026-05-05 09:31 | 34.25617 | -79.69376 | 30073 ft | 437 kts | 23° |
| 2026-05-05 09:31 | 34.31030 | -79.66032 | 30072 ft | 438 kts | 23° |
| 2026-05-05 09:32 | 34.36457 | -79.62676 | 30071 ft | 438 kts | 23° |
| 2026-05-05 09:32 | 34.41866 | -79.59332 | 30068 ft | 437 kts | 23° |
| 2026-05-05 09:33 | 34.47283 | -79.55974 | 30067 ft | 438 kts | 23° |
| 2026-05-05 09:33 | 34.52707 | -79.52605 | 30069 ft | 438 kts | 23° |
| 2026-05-05 09:34 | 34.58105 | -79.49152 | 30072 ft | 440 kts | 25° |
| 2026-05-05 09:34 | 34.63430 | -79.45533 | 30068 ft | 440 kts | 25° |
| 2026-05-05 09:35 | 34.68937 | -79.42344 | 30069 ft | 437 kts | 17° |
| 2026-05-05 09:35 | 34.77617 | -79.39407 | 30071 ft | 432 kts | 6° |
| 2026-05-05 09:36 | 34.83521 | -79.38147 | 30070 ft | 431 kts | 5° |
| 2026-05-05 09:36 | 34.89428 | -79.36906 | 30072 ft | 431 kts | 5° |
| 2026-05-05 09:37 | 34.95353 | -79.35648 | 30071 ft | 431 kts | 5° |
| 2026-05-05 09:37 | 35.01277 | -79.34386 | 30063 ft | 432 kts | 6° |
| 2026-05-05 09:38 | 35.07214 | -79.33115 | 30068 ft | 433 kts | 6° |
| 2026-05-05 09:38 | 35.13136 | -79.31846 | 30067 ft | 433 kts | 6° |
| 2026-05-05 09:39 | 35.19056 | -79.30576 | 30076 ft | 432 kts | 6° |
| 2026-05-05 09:39 | 35.24972 | -79.29303 | 30069 ft | 432 kts | 6° |
| 2026-05-05 09:40 | 35.30870 | -79.28032 | 30071 ft | 432 kts | 6° |
| 2026-05-05 09:40 | 35.36817 | -79.26750 | 30071 ft | 433 kts | 6° |
| 2026-05-05 09:41 | 35.42749 | -79.25470 | 30062 ft | 434 kts | 6° |
| 2026-05-05 09:41 | 35.48675 | -79.24187 | 30062 ft | 434 kts | 6° |
| 2026-05-05 09:42 | 35.54623 | -79.22900 | 30059 ft | 434 kts | 6° |
| 2026-05-05 09:42 | 35.60563 | -79.21607 | 30063 ft | 433 kts | 6° |
| 2026-05-05 09:43 | 35.66515 | -79.20314 | 30057 ft | 433 kts | 6° |
| 2026-05-05 09:43 | 35.72378 | -79.18543 | 30057 ft | 439 kts | 14° |
| 2026-05-05 09:44 | 35.77987 | -79.15433 | 30053 ft | 445 kts | 25° |
| 2026-05-05 09:44 | 35.83166 | -79.11198 | 30050 ft | 448 kts | 31° |
| 2026-05-05 09:45 | 35.88234 | -79.06743 | 30053 ft | 448 kts | 31° |
| 2026-05-05 09:45 | 35.93292 | -79.02303 | 30052 ft | 448 kts | 31° |
| 2026-05-05 09:46 | 35.98401 | -78.97832 | 30051 ft | 448 kts | 31° |
| 2026-05-05 09:46 | 36.03467 | -78.93398 | 30054 ft | 448 kts | 31° |
| 2026-05-05 09:47 | 36.08542 | -78.88949 | 30053 ft | 448 kts | 31° |
| 2026-05-05 09:47 | 36.13629 | -78.84485 | 30053 ft | 448 kts | 31° |
| 2026-05-05 09:48 | 36.18727 | -78.80000 | 30054 ft | 449 kts | 31° |
| 2026-05-05 09:48 | 36.23797 | -78.75533 | 30046 ft | 449 kts | 31° |
| 2026-05-05 09:49 | 36.28875 | -78.71052 | 30051 ft | 448 kts | 31° |
| 2026-05-05 09:49 | 36.33957 | -78.66559 | 30053 ft | 449 kts | 31° |
| 2026-05-05 09:50 | 36.39039 | -78.62058 | 30047 ft | 449 kts | 31° |
| 2026-05-05 09:50 | 36.44079 | -78.57602 | 30050 ft | 448 kts | 30° |
| 2026-05-05 09:51 | 36.49316 | -78.53421 | 30046 ft | 447 kts | 28° |
| 2026-05-05 09:51 | 36.54566 | -78.49329 | 30042 ft | 446 kts | 28° |
| 2026-05-05 09:52 | 36.59839 | -78.45205 | 30036 ft | 447 kts | 28° |
| 2026-05-05 09:52 | 36.65082 | -78.41088 | 30034 ft | 447 kts | 28° |
| 2026-05-05 09:53 | 36.70345 | -78.36948 | 30030 ft | 447 kts | 28° |
| 2026-05-05 09:53 | 36.75589 | -78.32815 | 30025 ft | 448 kts | 29° |
| 2026-05-05 09:54 | 36.80845 | -78.28664 | 30022 ft | 448 kts | 29° |
| 2026-05-05 09:54 | 36.86116 | -78.24494 | 30023 ft | 448 kts | 29° |
| 2026-05-05 09:55 | 36.91373 | -78.20327 | 30012 ft | 448 kts | 29° |
| 2026-05-05 09:55 | 36.96615 | -78.16165 | 30015 ft | 448 kts | 29° |
| 2026-05-05 09:56 | 37.01878 | -78.11988 | 30021 ft | 448 kts | 29° |
| 2026-05-05 09:56 | 37.07146 | -78.07803 | 30031 ft | 448 kts | 29° |
| 2026-05-05 09:57 | 37.12425 | -78.03593 | 30023 ft | 449 kts | 29° |
| 2026-05-05 09:57 | 37.17696 | -77.99382 | 30020 ft | 449 kts | 29° |
| 2026-05-05 09:58 | 37.22946 | -77.95179 | 30020 ft | 449 kts | 29° |
| 2026-05-05 09:58 | 37.28193 | -77.90972 | 30015 ft | 449 kts | 29° |
| 2026-05-05 09:59 | 37.33448 | -77.86752 | 30012 ft | 449 kts | 29° |
| 2026-05-05 09:59 | 37.38714 | -77.82516 | 30009 ft | 449 kts | 30° |
| 2026-05-05 10:00 | 37.43952 | -77.78299 | 30005 ft | 449 kts | 29° |
| 2026-05-05 10:00 | 37.49220 | -77.74048 | 30005 ft | 448 kts | 30° |
| 2026-05-05 10:01 | 37.54458 | -77.69809 | 29996 ft | 448 kts | 30° |
| 2026-05-05 10:01 | 37.59679 | -77.65563 | 30000 ft | 448 kts | 30° |
| 2026-05-05 10:02 | 37.64916 | -77.61311 | 29999 ft | 448 kts | 29° |
| 2026-05-05 10:02 | 37.70158 | -77.57050 | 29985 ft | 449 kts | 29° |
| 2026-05-05 10:03 | 37.75412 | -77.52780 | 29986 ft | 448 kts | 29° |
| 2026-05-05 10:03 | 37.80618 | -77.48547 | 29987 ft | 448 kts | 29° |
| 2026-05-05 10:04 | 37.85852 | -77.44294 | 29984 ft | 448 kts | 29° |
| 2026-05-05 10:04 | 37.91105 | -77.40028 | 29976 ft | 448 kts | 29° |
| 2026-05-05 10:05 | 37.96366 | -77.35764 | 29973 ft | 449 kts | 29° |
| 2026-05-05 10:05 | 38.01635 | -77.31493 | 29966 ft | 449 kts | 30° |
| 2026-05-05 10:06 | 38.06863 | -77.27255 | 29967 ft | 448 kts | 30° |
| 2026-05-05 10:06 | 38.12125 | -77.22972 | 29964 ft | 448 kts | 30° |
| 2026-05-05 10:07 | 38.17398 | -77.18672 | 29972 ft | 448 kts | 30° |
| 2026-05-05 10:07 | 38.22620 | -77.14414 | 29978 ft | 448 kts | 29° |
| 2026-05-05 10:08 | 38.27861 | -77.10133 | 29974 ft | 448 kts | 29° |
| 2026-05-05 10:08 | 38.33090 | -77.05850 | 29969 ft | 448 kts | 29° |
| 2026-05-05 10:09 | 38.38328 | -77.01562 | 29961 ft | 448 kts | 29° |
| 2026-05-05 10:09 | 38.43583 | -76.97258 | 29961 ft | 448 kts | 29° |
| 2026-05-05 10:10 | 38.48818 | -76.92958 | 29958 ft | 447 kts | 29° |
| 2026-05-05 10:10 | 38.54007 | -76.88682 | 29957 ft | 447 kts | 29° |
| 2026-05-05 10:11 | 38.59233 | -76.84386 | 29953 ft | 447 kts | 29° |
| 2026-05-05 10:11 | 38.64456 | -76.80090 | 29950 ft | 447 kts | 29° |
| 2026-05-05 10:12 | 38.69696 | -76.75776 | 29950 ft | 448 kts | 29° |
| 2026-05-05 10:12 | 38.74921 | -76.71460 | 29946 ft | 447 kts | 29° |
| 2026-05-05 10:13 | 38.80148 | -76.67143 | 29947 ft | 448 kts | 29° |
| 2026-05-05 10:13 | 38.85374 | -76.62826 | 29945 ft | 448 kts | 29° |
| 2026-05-05 10:14 | 38.90614 | -76.58495 | 29945 ft | 448 kts | 28° |
| 2026-05-05 10:14 | 38.95834 | -76.54172 | 29938 ft | 448 kts | 28° |
| 2026-05-05 10:15 | 39.01073 | -76.49825 | 29937 ft | 448 kts | 28° |
| 2026-05-05 10:15 | 39.06278 | -76.45519 | 29935 ft | 448 kts | 28° |
| 2026-05-05 10:16 | 39.11537 | -76.41167 | 29932 ft | 447 kts | 28° |
| 2026-05-05 10:16 | 39.16778 | -76.36856 | 29935 ft | 447 kts | 28° |
| 2026-05-05 10:17 | 39.22039 | -76.32561 | 29934 ft | 448 kts | 29° |
| 2026-05-05 10:17 | 39.27311 | -76.28302 | 29935 ft | 449 kts | 29° |
| 2026-05-05 10:18 | 39.32593 | -76.24052 | 29935 ft | 449 kts | 29° |
| 2026-05-05 10:18 | 39.37783 | -76.19888 | 29938 ft | 449 kts | 29° |
| 2026-05-05 10:19 | 39.43092 | -76.15623 | 29935 ft | 449 kts | 29° |
| 2026-05-05 10:19 | 39.48410 | -76.11372 | 29931 ft | 450 kts | 29° |
| 2026-05-05 10:20 | 39.53707 | -76.07166 | 29930 ft | 450 kts | 28° |
| 2026-05-05 10:20 | 39.59074 | -76.02928 | 29926 ft | 450 kts | 28° |
| 2026-05-05 10:21 | 39.64404 | -75.98731 | 29917 ft | 450 kts | 28° |
| 2026-05-05 10:21 | 39.69747 | -75.94554 | 29915 ft | 449 kts | 28° |
| 2026-05-05 10:22 | 39.75107 | -75.90411 | 29911 ft | 448 kts | 28° |
| 2026-05-05 10:22 | 39.80474 | -75.86319 | 29909 ft | 448 kts | 28° |
| 2026-05-05 10:23 | 39.85867 | -75.82247 | 29915 ft | 448 kts | 28° |
| 2026-05-05 10:23 | 39.91254 | -75.78208 | 29911 ft | 447 kts | 28° |
| 2026-05-05 10:24 | 39.96637 | -75.74201 | 29914 ft | 447 kts | 28° |
| 2026-05-05 10:24 | 40.02006 | -75.70215 | 29914 ft | 447 kts | 28° |
| 2026-05-05 10:25 | 40.07402 | -75.66209 | 29915 ft | 448 kts | 28° |
| 2026-05-05 10:25 | 40.12815 | -75.62199 | 29913 ft | 448 kts | 28° |
| 2026-05-05 10:26 | 40.18256 | -75.58171 | 29913 ft | 447 kts | 28° |
| 2026-05-05 10:26 | 40.23637 | -75.54195 | 29911 ft | 447 kts | 28° |
| 2026-05-05 10:27 | 40.29058 | -75.50204 | 29909 ft | 447 kts | 28° |
| 2026-05-05 10:27 | 40.34461 | -75.46228 | 29910 ft | 447 kts | 28° |
| 2026-05-05 10:28 | 40.39880 | -75.42242 | 29912 ft | 447 kts | 28° |
| 2026-05-05 10:28 | 40.45291 | -75.38274 | 29911 ft | 446 kts | 27° |
| 2026-05-05 10:29 | 40.50728 | -75.34300 | 29910 ft | 446 kts | 28° |
| 2026-05-05 10:29 | 40.56154 | -75.30348 | 29909 ft | 447 kts | 28° |
| 2026-05-05 10:30 | 40.61558 | -75.26414 | 29905 ft | 448 kts | 28° |
| 2026-05-05 10:30 | 40.67040 | -75.22430 | 29898 ft | 448 kts | 28° |
| 2026-05-05 10:31 | 40.72471 | -75.18485 | 29895 ft | 448 kts | 28° |
| 2026-05-05 10:31 | 40.77925 | -75.14527 | 29890 ft | 447 kts | 28° |
| 2026-05-05 10:32 | 40.83341 | -75.10619 | 29886 ft | 446 kts | 28° |
| 2026-05-05 10:32 | 40.88795 | -75.06694 | 29882 ft | 446 kts | 28° |
| 2026-05-05 10:33 | 40.94247 | -75.02768 | 29878 ft | 447 kts | 28° |
| 2026-05-05 10:33 | 40.99712 | -74.98824 | 29877 ft | 448 kts | 28° |
| 2026-05-05 10:34 | 41.05180 | -74.94888 | 29878 ft | 449 kts | 28° |
| 2026-05-05 10:34 | 41.10659 | -74.90949 | 29876 ft | 449 kts | 27° |
| 2026-05-05 10:35 | 41.16144 | -74.86985 | 29879 ft | 449 kts | 27° |
| 2026-05-05 10:35 | 41.21627 | -74.83020 | 29885 ft | 450 kts | 27° |
| 2026-05-05 10:36 | 41.27103 | -74.79060 | 29889 ft | 451 kts | 27° |
| 2026-05-05 10:36 | 41.32595 | -74.75084 | 29889 ft | 450 kts | 27° |
| 2026-05-05 10:37 | 41.38101 | -74.71068 | 29887 ft | 451 kts | 27° |
| 2026-05-05 10:37 | 41.43584 | -74.67061 | 29885 ft | 451 kts | 27° |
| 2026-05-05 10:38 | 41.49073 | -74.63032 | 29880 ft | 451 kts | 27° |
| 2026-05-05 10:38 | 41.54545 | -74.58999 | 29882 ft | 451 kts | 27° |
| 2026-05-05 10:39 | 41.60047 | -74.54924 | 29876 ft | 452 kts | 27° |
| 2026-05-05 10:39 | 41.65519 | -74.50871 | 29878 ft | 452 kts | 27° |
| 2026-05-05 10:40 | 41.71018 | -74.46787 | 29874 ft | 452 kts | 27° |
| 2026-05-05 10:40 | 41.76524 | -74.42681 | 29873 ft | 453 kts | 27° |
| 2026-05-05 10:41 | 41.81974 | -74.38596 | 29866 ft | 445 kts | 27° |
| 2026-05-05 10:41 | 41.87359 | -74.34538 | 29870 ft | 445 kts | 27° |
| 2026-05-05 10:42 | 41.95399 | -74.28439 | 29860 ft | 443 kts | 27° |
| 2026-05-05 10:43 | 42.00776 | -74.24351 | 29861 ft | 443 kts | 27° |
| 2026-05-05 10:43 | 42.06112 | -74.20274 | 29851 ft | 444 kts | 27° |
| 2026-05-05 10:44 | 42.11492 | -74.16143 | 29848 ft | 445 kts | 27° |
| 2026-05-05 10:44 | 42.16859 | -74.12013 | 29834 ft | 445 kts | 27° |
| 2026-05-05 10:45 | 42.22223 | -74.07877 | 29839 ft | 446 kts | 27° |
| 2026-05-05 10:45 | 42.27610 | -74.03713 | 29851 ft | 446 kts | 27° |
| 2026-05-05 10:46 | 42.32964 | -73.99554 | 29854 ft | 446 kts | 27° |
| 2026-05-05 10:46 | 42.38348 | -73.95364 | 29854 ft | 445 kts | 27° |
| 2026-05-05 10:47 | 42.43700 | -73.91184 | 29849 ft | 446 kts | 27° |
| 2026-05-05 10:47 | 42.49066 | -73.86968 | 29840 ft | 445 kts | 27° |
| 2026-05-05 10:48 | 42.54371 | -73.82775 | 29830 ft | 446 kts | 27° |
| 2026-05-05 10:48 | 42.59716 | -73.78532 | 29829 ft | 446 kts | 27° |
| 2026-05-05 10:49 | 42.65076 | -73.74262 | 29834 ft | 446 kts | 27° |
| 2026-05-05 10:49 | 42.70385 | -73.70029 | 29834 ft | 446 kts | 27° |
| 2026-05-05 10:50 | 42.75737 | -73.65750 | 29830 ft | 446 kts | 27° |
| 2026-05-05 10:50 | 42.81060 | -73.61476 | 29817 ft | 446 kts | 27° |
| 2026-05-05 10:51 | 42.86408 | -73.57163 | 29815 ft | 446 kts | 26° |
| 2026-05-05 10:51 | 42.91699 | -73.52874 | 29818 ft | 446 kts | 26° |
| 2026-05-05 10:52 | 42.97022 | -73.48551 | 29819 ft | 446 kts | 26° |
| 2026-05-05 10:52 | 43.02343 | -73.44221 | 29819 ft | 445 kts | 26° |
| 2026-05-05 10:53 | 43.07653 | -73.39871 | 29814 ft | 446 kts | 26° |
| 2026-05-05 10:53 | 43.12966 | -73.35519 | 29812 ft | 447 kts | 26° |
| 2026-05-05 10:54 | 43.18302 | -73.31129 | 29806 ft | 448 kts | 27° |
| 2026-05-05 10:54 | 43.23640 | -73.26736 | 29805 ft | 448 kts | 27° |
| 2026-05-05 10:55 | 43.28960 | -73.22360 | 29809 ft | 448 kts | 27° |
| 2026-05-05 10:55 | 43.34298 | -73.17969 | 29802 ft | 448 kts | 27° |
| 2026-05-05 10:56 | 43.39627 | -73.13562 | 29797 ft | 448 kts | 27° |
| 2026-05-05 10:56 | 43.44952 | -73.09141 | 29791 ft | 448 kts | 26° |
| 2026-05-05 10:57 | 43.50288 | -73.04707 | 29796 ft | 448 kts | 26° |
| 2026-05-05 10:57 | 43.55625 | -73.00256 | 29800 ft | 449 kts | 26° |
| 2026-05-05 10:58 | 43.60945 | -72.95809 | 29803 ft | 450 kts | 26° |
| 2026-05-05 10:58 | 43.66294 | -72.91346 | 29808 ft | 450 kts | 26° |
| 2026-05-05 10:59 | 43.71616 | -72.86855 | 29803 ft | 449 kts | 26° |
| 2026-05-05 10:59 | 43.76927 | -72.82337 | 29798 ft | 450 kts | 26° |
| 2026-05-05 11:00 | 43.82261 | -72.77764 | 29791 ft | 449 kts | 26° |
| 2026-05-05 11:00 | 43.87530 | -72.73219 | 29784 ft | 450 kts | 26° |
| 2026-05-05 11:01 | 43.92858 | -72.68592 | 29772 ft | 451 kts | 26° |
| 2026-05-05 11:01 | 43.98169 | -72.63968 | 29771 ft | 452 kts | 26° |
| 2026-05-05 11:02 | 44.03447 | -72.59373 | 29774 ft | 451 kts | 26° |
| 2026-05-05 11:02 | 44.08768 | -72.54744 | 29783 ft | 449 kts | 26° |
| 2026-05-05 11:03 | 44.14066 | -72.50121 | 29790 ft | 450 kts | 26° |
| 2026-05-05 11:03 | 44.19323 | -72.45521 | 29792 ft | 449 kts | 26° |
| 2026-05-05 11:04 | 44.24619 | -72.40885 | 29786 ft | 450 kts | 26° |
| 2026-05-05 11:04 | 44.29903 | -72.36253 | 29778 ft | 451 kts | 26° |
| 2026-05-05 11:05 | 44.35226 | -72.31578 | 29766 ft | 451 kts | 26° |
| 2026-05-05 11:05 | 44.40501 | -72.26921 | 29761 ft | 451 kts | 26° |
| 2026-05-05 11:06 | 44.45808 | -72.22218 | 29757 ft | 451 kts | 26° |
| 2026-05-05 11:06 | 44.51093 | -72.17542 | 29757 ft | 452 kts | 26° |
| 2026-05-05 11:07 | 44.56394 | -72.12846 | 29767 ft | 452 kts | 26° |
| 2026-05-05 11:07 | 44.61722 | -72.08123 | 29769 ft | 453 kts | 26° |
| 2026-05-05 11:08 | 44.66998 | -72.03442 | 29766 ft | 452 kts | 26° |
| 2026-05-05 11:08 | 44.72309 | -71.98715 | 29761 ft | 452 kts | 26° |
| 2026-05-05 11:09 | 44.77625 | -71.93981 | 29759 ft | 451 kts | 26° |
| 2026-05-05 11:09 | 44.82921 | -71.89262 | 29746 ft | 452 kts | 26° |
| 2026-05-05 11:10 | 44.88226 | -71.84531 | 29733 ft | 452 kts | 26° |
| 2026-05-05 11:10 | 44.93546 | -71.79772 | 29733 ft | 452 kts | 26° |
| 2026-05-05 11:11 | 44.98812 | -71.75057 | 29731 ft | 452 kts | 25° |
| 2026-05-05 11:11 | 45.04126 | -71.70304 | 29738 ft | 453 kts | 25° |
| 2026-05-05 11:12 | 45.09411 | -71.65551 | 29737 ft | 451 kts | 25° |
| 2026-05-05 11:12 | 45.14674 | -71.60815 | 29740 ft | 450 kts | 25° |
| 2026-05-05 11:13 | 45.19975 | -71.56046 | 29746 ft | 450 kts | 25° |
| 2026-05-05 11:13 | 45.25232 | -71.51321 | 29742 ft | 451 kts | 25° |
| 2026-05-05 11:14 | 45.30547 | -71.46548 | 29738 ft | 450 kts | 25° |
| 2026-05-05 11:14 | 45.35821 | -71.41799 | 29735 ft | 450 kts | 25° |
| 2026-05-05 11:15 | 45.41104 | -71.37043 | 29733 ft | 450 kts | 25° |
| 2026-05-05 11:15 | 45.46389 | -71.32284 | 29717 ft | 450 kts | 26° |
| 2026-05-05 11:16 | 45.51682 | -71.27520 | 29708 ft | 453 kts | 25° |
| 2026-05-05 11:16 | 45.56982 | -71.22739 | 29710 ft | 451 kts | 25° |
| 2026-05-05 11:17 | 45.62275 | -71.17970 | 29721 ft | 451 kts | 25° |
| 2026-05-05 11:17 | 45.67592 | -71.13183 | 29712 ft | 452 kts | 25° |
| 2026-05-05 11:18 | 45.72906 | -71.08395 | 29712 ft | 450 kts | 25° |
| 2026-05-05 11:18 | 45.78182 | -71.03640 | 29711 ft | 450 kts | 25° |
| 2026-05-05 11:19 | 45.83461 | -70.98855 | 29706 ft | 450 kts | 25° |
| 2026-05-05 11:19 | 45.88748 | -70.94067 | 29712 ft | 452 kts | 25° |
| 2026-05-05 11:20 | 45.94052 | -70.89274 | 29712 ft | 451 kts | 25° |
| 2026-05-05 11:20 | 45.99366 | -70.84454 | 29708 ft | 451 kts | 25° |
| 2026-05-05 11:21 | 46.04651 | -70.79661 | 29703 ft | 452 kts | 25° |
| 2026-05-05 11:21 | 46.09972 | -70.74836 | 29699 ft | 452 kts | 25° |
| 2026-05-05 11:22 | 46.15281 | -70.70020 | 29691 ft | 451 kts | 25° |
| 2026-05-05 11:22 | 46.20576 | -70.65218 | 29685 ft | 451 kts | 25° |
| 2026-05-05 11:23 | 46.25867 | -70.60419 | 29683 ft | 452 kts | 25° |
| 2026-05-05 11:23 | 46.31171 | -70.55611 | 29688 ft | 451 kts | 25° |
| 2026-05-05 11:24 | 46.36472 | -70.50778 | 29684 ft | 451 kts | 25° |
| 2026-05-05 11:24 | 46.41750 | -70.45964 | 29681 ft | 450 kts | 24° |
| 2026-05-05 11:25 | 46.47055 | -70.41117 | 29679 ft | 450 kts | 24° |
| 2026-05-05 11:25 | 46.52353 | -70.36275 | 29676 ft | 452 kts | 24° |
| 2026-05-05 11:26 | 46.56797 | -70.32204 | 29675 ft | 452 kts | 25° |
| 2026-05-05 11:26 | 46.62943 | -70.26549 | 29675 ft | 451 kts | 25° |
| 2026-05-05 11:27 | 46.68248 | -70.21661 | 29679 ft | 452 kts | 25° |
| 2026-05-05 11:27 | 46.73523 | -70.16790 | 29686 ft | 451 kts | 25° |
| 2026-05-05 11:28 | 46.78818 | -70.11910 | 29686 ft | 452 kts | 24° |
| 2026-05-05 11:28 | 46.84133 | -70.07004 | 29683 ft | 452 kts | 24° |
| 2026-05-05 11:29 | 46.89420 | -70.02100 | 29676 ft | 451 kts | 24° |
| 2026-05-05 11:29 | 46.94732 | -69.97175 | 29669 ft | 452 kts | 24° |
| 2026-05-05 11:30 | 47.00023 | -69.92266 | 29668 ft | 451 kts | 24° |
| 2026-05-05 11:30 | 47.05292 | -69.87357 | 29670 ft | 452 kts | 24° |
| 2026-05-05 11:31 | 47.10569 | -69.82434 | 29674 ft | 451 kts | 24° |
| 2026-05-05 11:31 | 47.15876 | -69.77473 | 29663 ft | 451 kts | 24° |
| 2026-05-05 11:32 | 47.21133 | -69.72573 | 29662 ft | 450 kts | 24° |
| 2026-05-05 11:32 | 47.26447 | -69.67620 | 29657 ft | 451 kts | 24° |
| 2026-05-05 11:33 | 47.31725 | -69.62711 | 29660 ft | 451 kts | 24° |
| 2026-05-05 11:33 | 47.36994 | -69.57783 | 29655 ft | 450 kts | 24° |
| 2026-05-05 11:34 | 47.42267 | -69.52857 | 29645 ft | 449 kts | 24° |
| 2026-05-05 11:34 | 47.47520 | -69.47930 | 29644 ft | 449 kts | 24° |
| 2026-05-05 11:35 | 47.52811 | -69.42946 | 29642 ft | 450 kts | 24° |
| 2026-05-05 11:35 | 47.58053 | -69.38027 | 29640 ft | 451 kts | 24° |
| 2026-05-05 11:36 | 47.63363 | -69.33031 | 29635 ft | 451 kts | 24° |
| 2026-05-05 11:36 | 47.68630 | -69.28088 | 29642 ft | 449 kts | 24° |
| 2026-05-05 11:37 | 47.73910 | -69.23128 | 29635 ft | 449 kts | 24° |
| 2026-05-05 11:37 | 47.79193 | -69.18160 | 29633 ft | 450 kts | 24° |
| 2026-05-05 11:38 | 47.84449 | -69.13235 | 29638 ft | 448 kts | 24° |
| 2026-05-05 11:38 | 47.89705 | -69.08292 | 29645 ft | 449 kts | 24° |
| 2026-05-05 11:39 | 47.95846 | -69.02515 | 29647 ft | 449 kts | 24° |
| 2026-05-05 11:39 | 48.00226 | -68.98377 | 29650 ft | 447 kts | 24° |
| 2026-05-05 11:40 | 48.05456 | -68.93423 | 29645 ft | 447 kts | 24° |
| 2026-05-05 11:40 | 48.10705 | -68.88459 | 29640 ft | 447 kts | 24° |
| 2026-05-05 11:41 | 48.15966 | -68.83511 | 29634 ft | 445 kts | 24° |
| 2026-05-05 11:41 | 48.21166 | -68.78593 | 29636 ft | 445 kts | 24° |
| 2026-05-05 11:42 | 48.26375 | -68.73612 | 29634 ft | 445 kts | 23° |
| 2026-05-05 11:42 | 48.31588 | -68.68608 | 29638 ft | 446 kts | 23° |
| 2026-05-05 11:43 | 48.36783 | -68.63636 | 29640 ft | 446 kts | 23° |
| 2026-05-05 11:43 | 48.42014 | -68.58631 | 29646 ft | 445 kts | 23° |
| 2026-05-05 11:44 | 48.47178 | -68.53677 | 29642 ft | 445 kts | 23° |
| 2026-05-05 11:44 | 48.52420 | -68.48656 | 29648 ft | 446 kts | 23° |
| 2026-05-05 11:45 | 48.57589 | -68.43681 | 29650 ft | 445 kts | 23° |
| 2026-05-05 11:45 | 48.63662 | -68.37829 | 29652 ft | 444 kts | 23° |
| 2026-05-05 11:46 | 48.68002 | -68.33650 | 29651 ft | 444 kts | 24° |
| 2026-05-05 11:46 | 48.73189 | -68.28632 | 29654 ft | 444 kts | 24° |
| 2026-05-05 11:47 | 48.78379 | -68.23629 | 29656 ft | 443 kts | 24° |
| 2026-05-05 11:47 | 48.83550 | -68.18651 | 29657 ft | 442 kts | 23° |
| 2026-05-05 11:48 | 48.91323 | -68.11134 | 29656 ft | 442 kts | 23° |
| 2026-05-05 11:48 | 48.96497 | -68.06130 | 29658 ft | 442 kts | 23° |
| 2026-05-05 11:49 | 49.01666 | -68.01125 | 29660 ft | 441 kts | 23° |
| 2026-05-05 11:49 | 49.06802 | -67.96129 | 29660 ft | 441 kts | 23° |
| 2026-05-05 11:50 | 49.11975 | -67.91096 | 29664 ft | 440 kts | 23° |
| 2026-05-05 11:50 | 49.17983 | -67.85235 | 29661 ft | 441 kts | 23° |
| 2026-05-05 11:51 | 49.22298 | -67.81049 | 29661 ft | 442 kts | 23° |
| 2026-05-05 11:51 | 49.27483 | -67.75995 | 29659 ft | 442 kts | 23° |
| 2026-05-05 11:52 | 49.32622 | -67.70973 | 29646 ft | 437 kts | 23° |
| 2026-05-05 11:52 | 49.37688 | -67.66061 | 29637 ft | 430 kts | 23° |
| 2026-05-05 11:53 | 49.42711 | -67.61195 | 29627 ft | 423 kts | 23° |
| 2026-05-05 11:53 | 49.47635 | -67.56393 | 29622 ft | 417 kts | 22° |
| 2026-05-05 11:54 | 49.52256 | -67.51337 | 29577 ft | 409 kts | 39° |
| 2026-05-05 11:54 | 49.53524 | -67.47404 | 29104 ft | 433 kts | 81° |
| 2026-05-05 11:54 | 49.52783 | -67.42988 | 27127 ft | 457 kts | 136° |
| 2026-05-05 11:55 | 49.50132 | -67.41162 | 22654 ft | 487 kts | 192° |
| 2026-05-05 11:55 | 49.47862 | -67.43737 | 15449 ft | 541 kts | 247° |
| 2026-05-05 11:55 | 49.48095 | -67.48214 | 6388 ft | 586 kts | 297° |
| 2026-05-05 11:55 | 49.49766 | -67.50333 | 794 ft | 2 kts | 358° |
| 2026-05-05 11:56 | 49.49766 | -67.50334 | 793 ft | 0 kts | 359° |
| 2026-05-05 11:57 | 49.49767 | -67.50334 | 793 ft | 0 kts | 359° |
| 2026-05-05 11:58 | 49.49768 | -67.50334 | 793 ft | 0 kts | 359° |
| 2026-05-05 11:58 | 49.49768 | -67.50335 | 793 ft | 0 kts | 359° |
| 2026-05-05 12:00 | 49.49769 | -67.50335 | 792 ft | 0 kts | 358° |
| 2026-05-05 12:00 | 49.49769 | -67.50336 | 792 ft | 0 kts | 358° |
| 2026-05-05 12:01 | 49.49770 | -67.50336 | 792 ft | 0 kts | 358° |
| 2026-05-05 12:02 | 49.49770 | -67.50337 | 792 ft | 0 kts | 356° |
| 2026-05-05 12:03 | 49.49770 | -67.50338 | 792 ft | 0 kts | 352° |
| 2026-05-05 12:03 | 49.49771 | -67.50339 | 792 ft | 0 kts | 349° |
| 2026-05-05 12:04 | 49.49771 | -67.50340 | 792 ft | 0 kts | 345° |
| 2026-05-05 12:05 | 49.49771 | -67.50341 | 791 ft | 0 kts | 343° |
| 2026-05-05 12:06 | 49.49771 | -67.50342 | 791 ft | 0 kts | 341° |
| 2026-05-05 12:06 | 49.49772 | -67.50342 | 791 ft | 0 kts | 340° |
| 2026-05-05 12:06 | 49.49772 | -67.50343 | 791 ft | 0 kts | 339° |
| 2026-05-05 12:07 | 49.49773 | -67.50343 | 791 ft | 0 kts | 336° |
| 2026-05-05 12:09 | 49.49773 | -67.50344 | 791 ft | 0 kts | 336° |
| 2026-05-05 12:09 | 49.49774 | -67.50344 | 791 ft | 0 kts | 336° |
| 2026-05-05 12:11 | 49.49775 | -67.50345 | 791 ft | 0 kts | 336° |
| 2026-05-05 12:12 | 49.49775 | -67.50346 | 791 ft | 0 kts | 336° |
| 2026-05-05 12:13 | 49.49776 | -67.50346 | 791 ft | 0 kts | 336° |
| 2026-05-05 12:14 | 49.49776 | -67.50347 | 791 ft | 0 kts | 333° |
| 2026-05-05 12:15 | 49.49777 | -67.50348 | 791 ft | 0 kts | 332° |
| 2026-05-05 12:15 | 49.49777 | -67.50349 | 791 ft | 0 kts | 329° |
| 2026-05-05 12:16 | 49.49777 | -67.50350 | 791 ft | 0 kts | 326° |
| 2026-05-05 12:17 | 49.49777 | -67.50351 | 791 ft | 0 kts | 325° |
| 2026-05-05 12:17 | 49.49777 | -67.50352 | 791 ft | 0 kts | 324° |
| 2026-05-05 12:18 | 49.49777 | -67.50353 | 791 ft | 0 kts | 322° |
| 2026-05-05 12:18 | 49.49777 | -67.50354 | 791 ft | 0 kts | 322° |
| 2026-05-05 12:18 | 49.49777 | -67.50355 | 791 ft | 0 kts | 321° |
| 2026-05-05 12:19 | 49.49778 | -67.50355 | 791 ft | 0 kts | 321° |
| 2026-05-05 12:19 | 49.49778 | -67.50356 | 791 ft | 0 kts | 321° |
| 2026-05-05 12:19 | 49.49778 | -67.50357 | 791 ft | 0 kts | 321° |
| 2026-05-05 12:20 | 49.49779 | -67.50359 | 791 ft | 0 kts | 321° |
| 2026-05-05 12:20 | 49.49780 | -67.50360 | 791 ft | 0 kts | 321° |
| 2026-05-05 12:21 | 49.49780 | -67.50361 | 791 ft | 0 kts | 321° |
| 2026-05-05 12:21 | 49.49780 | -67.50362 | 791 ft | 0 kts | 320° |
| 2026-05-05 12:21 | 49.49781 | -67.50362 | 791 ft | 0 kts | 320° |
| 2026-05-05 12:21 | 49.49781 | -67.50363 | 791 ft | 0 kts | 320° |
| 2026-05-05 12:22 | 49.49781 | -67.50364 | 791 ft | 0 kts | 320° |
| 2026-05-05 12:22 | 49.49782 | -67.50365 | 791 ft | 0 kts | 321° |
| 2026-05-05 12:22 | 49.49783 | -67.50367 | 791 ft | 0 kts | 321° |
| 2026-05-05 12:23 | 49.49783 | -67.50368 | 791 ft | 0 kts | 321° |
| 2026-05-05 12:23 | 49.49783 | -67.50369 | 791 ft | 0 kts | 322° |
| 2026-05-05 12:23 | 49.49784 | -67.50369 | 791 ft | 0 kts | 322° |
| 2026-05-05 12:23 | 49.49784 | -67.50370 | 791 ft | 0 kts | 322° |
| 2026-05-05 12:24 | 49.49784 | -67.50371 | 791 ft | 0 kts | 322° |
| 2026-05-05 12:24 | 49.49785 | -67.50372 | 791 ft | 0 kts | 323° |
| 2026-05-05 12:24 | 49.49786 | -67.50373 | 791 ft | 0 kts | 323° |
| 2026-05-05 12:24 | 49.49786 | -67.50374 | 791 ft | 0 kts | 324° |
| 2026-05-05 12:25 | 49.49786 | -67.50375 | 791 ft | 0 kts | 324° |
| 2026-05-05 12:25 | 49.49787 | -67.50376 | 791 ft | 0 kts | 325° |
| 2026-05-05 12:25 | 49.49788 | -67.50377 | 791 ft | 0 kts | 325° |
| 2026-05-05 12:25 | 49.49788 | -67.50378 | 791 ft | 0 kts | 326° |
| 2026-05-05 12:26 | 49.49789 | -67.50380 | 791 ft | 0 kts | 328° |
| 2026-05-05 12:26 | 49.49789 | -67.50381 | 791 ft | 0 kts | 328° |
| 2026-05-05 12:26 | 49.49790 | -67.50382 | 791 ft | 0 kts | 329° |
| 2026-05-05 12:27 | 49.49791 | -67.50383 | 791 ft | 0 kts | 330° |
| 2026-05-05 12:27 | 49.49791 | -67.50384 | 791 ft | 0 kts | 331° |
| 2026-05-05 12:27 | 49.49792 | -67.50384 | 791 ft | 0 kts | 332° |
| 2026-05-05 12:27 | 49.49792 | -67.50386 | 791 ft | 0 kts | 333° |
| 2026-05-05 12:28 | 49.49793 | -67.50386 | 791 ft | 0 kts | 333° |
| 2026-05-05 12:28 | 49.49793 | -67.50387 | 791 ft | 0 kts | 332° |
| 2026-05-05 12:28 | 49.49793 | -67.50388 | 791 ft | 0 kts | 331° |
| 2026-05-05 12:29 | 49.49792 | -67.50388 | 791 ft | 0 kts | 331° |
| 2026-05-05 12:30 | 49.49791 | -67.50388 | 791 ft | 0 kts | 336° |
| 2026-05-05 12:31 | 49.49791 | -67.50389 | 791 ft | 0 kts | 337° |
| 2026-05-05 12:31 | 49.49791 | -67.50390 | 791 ft | 0 kts | 340° |
| 2026-05-05 12:32 | 49.49790 | -67.50390 | 791 ft | 0 kts | 345° |
| 2026-05-05 12:33 | 49.49789 | -67.50390 | 791 ft | 0 kts | 355° |
| 2026-05-05 12:34 | 49.49789 | -67.50391 | 791 ft | 0 kts | 3° |
| 2026-05-05 12:35 | 49.49788 | -67.50391 | 791 ft | 0 kts | 10° |
| 2026-05-05 12:36 | 49.49788 | -67.50392 | 791 ft | 0 kts | 23° |
| 2026-05-05 12:36 | 49.49788 | -67.50393 | 791 ft | 0 kts | 28° |
| 2026-05-05 12:37 | 49.49788 | -67.50394 | 791 ft | 0 kts | 31° |
| 2026-05-05 12:37 | 49.49787 | -67.50394 | 791 ft | 0 kts | 36° |
| 2026-05-05 12:37 | 49.49787 | -67.50395 | 791 ft | 0 kts | 41° |
| 2026-05-05 12:37 | 49.49787 | -67.50397 | 791 ft | 0 kts | 47° |
| 2026-05-05 12:38 | 49.49787 | -67.50399 | 791 ft | 0 kts | 60° |
| 2026-05-05 12:38 | 49.49787 | -67.50401 | 791 ft | 0 kts | 68° |
| 2026-05-05 12:38 | 49.49787 | -67.50403 | 791 ft | 0 kts | 80° |
| 2026-05-05 12:39 | 49.49787 | -67.50404 | 791 ft | 0 kts | 86° |
| 2026-05-05 12:39 | 49.49786 | -67.50404 | 791 ft | 0 kts | 91° |
| 2026-05-05 12:39 | 49.49785 | -67.50404 | 791 ft | 0 kts | 97° |
| 2026-05-05 12:40 | 49.49784 | -67.50404 | 791 ft | 0 kts | 100° |
| 2026-05-05 12:40 | 49.49783 | -67.50404 | 791 ft | 0 kts | 105° |
| 2026-05-05 12:40 | 49.49782 | -67.50405 | 791 ft | 0 kts | 108° |
| 2026-05-05 12:41 | 49.49781 | -67.50405 | 791 ft | 0 kts | 112° |
| 2026-05-05 12:42 | 49.49780 | -67.50405 | 791 ft | 0 kts | 118° |
| 2026-05-05 12:43 | 49.49779 | -67.50405 | 791 ft | 0 kts | 126° |
| 2026-05-05 12:43 | 49.49779 | -67.50404 | 791 ft | 0 kts | 128° |
| 2026-05-05 12:43 | 49.49778 | -67.50404 | 791 ft | 0 kts | 131° |
| 2026-05-05 12:45 | 49.49777 | -67.50404 | 791 ft | 0 kts | 140° |
| 2026-05-05 12:45 | 49.49777 | -67.50405 | 791 ft | 0 kts | 144° |
| 2026-05-05 12:46 | 49.49776 | -67.50405 | 791 ft | 0 kts | 149° |
| 2026-05-05 12:46 | 49.49776 | -67.50406 | 791 ft | 0 kts | 151° |
| 2026-05-05 12:46 | 49.49775 | -67.50406 | 791 ft | 0 kts | 153° |
| 2026-05-05 12:47 | 49.49775 | -67.50407 | 791 ft | 0 kts | 156° |
| 2026-05-05 12:47 | 49.49774 | -67.50407 | 791 ft | 0 kts | 163° |
| 2026-05-05 12:48 | 49.49773 | -67.50408 | 791 ft | 0 kts | 166° |
| 2026-05-05 12:48 | 49.49773 | -67.50409 | 791 ft | 0 kts | 168° |
| 2026-05-05 12:48 | 49.49773 | -67.50410 | 792 ft | 0 kts | 171° |
| 2026-05-05 12:48 | 49.49772 | -67.50410 | 792 ft | 0 kts | 174° |
| 2026-05-05 12:49 | 49.49772 | -67.50411 | 792 ft | 0 kts | 176° |
| 2026-05-05 12:49 | 49.49771 | -67.50413 | 792 ft | 0 kts | 180° |
| 2026-05-05 12:49 | 49.49771 | -67.50414 | 792 ft | 0 kts | 182° |
| 2026-05-05 12:50 | 49.49771 | -67.50416 | 792 ft | 0 kts | 188° |
| 2026-05-05 12:50 | 49.49770 | -67.50418 | 792 ft | 0 kts | 192° |
| 2026-05-05 12:50 | 49.49770 | -67.50420 | 792 ft | 0 kts | 194° |
| 2026-05-05 12:50 | 49.49769 | -67.50421 | 792 ft | 0 kts | 195° |
| 2026-05-05 12:51 | 49.49770 | -67.50423 | 792 ft | 0 kts | 193° |
| 2026-05-05 12:51 | 49.49770 | -67.50424 | 792 ft | 0 kts | 191° |
| 2026-05-05 12:51 | 49.49771 | -67.50426 | 792 ft | 0 kts | 188° |
| 2026-05-05 12:51 | 49.49771 | -67.50428 | 792 ft | 0 kts | 186° |
| 2026-05-05 12:52 | 49.49771 | -67.50432 | 792 ft | 0 kts | 185° |
| 2026-05-05 12:52 | 49.49771 | -67.50433 | 792 ft | 0 kts | 188° |
| 2026-05-05 12:52 | 49.49771 | -67.50434 | 792 ft | 0 kts | 191° |
| 2026-05-05 12:53 | 49.49771 | -67.50433 | 792 ft | 0 kts | 191° |